< < Back
Terminal Aerodrome Forecast


Current Version              Previous Versions:   1  2  3  4  5  6  7  8  9  

Terminal Aerodrome Forecast

066
FTUS42 KFFC 052321
TAFMCN
TAF
KMCN 052321Z 0600/0624 04004KT P6SM FEW250
     FM061500 07006KT P6SM SCT150 BKN250
     FM062100 03005KT P6SM SCT050 BKN100=

Latest METAR

224
SAUS80 KWBC 061300 RRA
MTRMCN
METAR KMCN 061253Z 27003KT 10SM CLR M01/M02 A3035 RMK AO2 SLP278
T10111022


USA.gov is the U.S. government's official web portal to all federal, state and local government web resources and services.